createdAt,value
2023-05-01T00:00:56.553Z,32.48
2023-05-01T00:01:56.721Z,32.50
2023-05-01T00:02:56.734Z,32.48
2023-05-01T00:03:57.026Z,32.50
2023-05-01T00:04:57.010Z,32.47
2023-05-01T00:05:57.009Z,32.49
2023-05-01T00:06:56.974Z,32.50
2023-05-01T00:07:57.104Z,32.50
2023-05-01T00:08:57.122Z,32.50
2023-05-01T00:09:57.558Z,32.49
2023-05-01T00:10:57.272Z,32.50
2023-05-01T00:11:58.201Z,32.51
2023-05-01T00:12:57.466Z,32.50
2023-05-01T00:13:57.669Z,32.50
2023-05-01T00:14:57.659Z,32.51
2023-05-01T00:15:57.706Z,32.56
2023-05-01T00:16:57.863Z,32.50
2023-05-01T00:17:57.776Z,32.49
2023-05-01T00:18:57.827Z,32.51
2023-05-01T00:19:58.282Z,32.52
2023-05-01T00:20:57.954Z,32.51
2023-05-01T00:21:58.029Z,32.51
2023-05-01T00:22:58.104Z,32.52
2023-05-01T00:23:58.168Z,32.51
2023-05-01T00:24:58.256Z,32.50
2023-05-01T00:25:58.322Z,32.50
2023-05-01T00:26:58.412Z,32.51
2023-05-01T00:27:58.442Z,32.52
2023-05-01T00:28:58.537Z,32.52
2023-05-01T00:29:58.969Z,32.50
2023-05-01T00:30:58.763Z,32.49
2023-05-01T00:31:58.856Z,32.53
2023-05-01T00:32:58.921Z,32.50
2023-05-01T00:33:58.871Z,32.52
2023-05-01T00:34:58.940Z,32.53
2023-05-01T00:35:59.014Z,32.50
2023-05-01T00:36:59.086Z,32.51
2023-05-01T00:37:59.181Z,32.51
2023-05-01T00:38:59.220Z,32.51
2023-05-01T00:39:59.654Z,32.53
2023-05-01T00:40:59.377Z,32.53
2023-05-01T00:41:59.447Z,32.51
2023-05-01T00:42:59.531Z,32.50
2023-05-01T00:43:59.606Z,32.50
2023-05-01T00:44:59.682Z,32.53
2023-05-01T00:45:59.795Z,32.56
2023-05-01T00:46:59.832Z,32.56
2023-05-01T00:47:59.946Z,32.54
2023-05-01T00:49:00.013Z,32.54
2023-05-01T00:50:00.149Z,32.54
2023-05-01T00:51:00.208Z,32.56
2023-05-01T00:52:00.221Z,32.53
2023-05-01T00:53:00.304Z,32.52
2023-05-01T00:54:00.353Z,32.54
2023-05-01T00:55:00.402Z,32.54
2023-05-01T00:56:00.473Z,32.55
2023-05-01T00:57:00.608Z,32.56
2023-05-01T00:58:00.611Z,32.58
2023-05-01T00:59:00.689Z,32.53
2023-05-01T01:00:00.769Z,32.50
2023-05-01T01:01:00.883Z,32.52
2023-05-01T01:02:00.897Z,32.51
2023-05-01T01:03:00.992Z,32.51
2023-05-01T01:04:01.088Z,32.49
2023-05-01T01:05:01.109Z,32.50
2023-05-01T01:06:01.215Z,32.49
2023-05-01T01:07:01.284Z,32.50
2023-05-01T01:08:01.358Z,32.50
2023-05-01T01:09:01.395Z,32.54
2023-05-01T01:10:01.475Z,32.49
2023-05-01T01:11:01.555Z,32.48
2023-05-01T01:12:01.631Z,32.49
2023-05-01T01:13:01.708Z,32.48
2023-05-01T01:14:01.776Z,32.48
2023-05-01T01:15:01.857Z,32.51
2023-05-01T01:16:01.925Z,32.52
2023-05-01T01:17:02.053Z,32.50
2023-05-01T01:18:02.029Z,32.51
2023-05-01T01:19:02.051Z,32.48
2023-05-01T01:20:02.083Z,32.49
2023-05-01T01:21:02.120Z,32.50
2023-05-01T01:22:02.141Z,32.52
2023-05-01T01:23:02.182Z,32.51
2023-05-01T01:24:02.191Z,32.52
2023-05-01T01:25:02.230Z,32.53
2023-05-01T01:26:02.261Z,32.55
2023-05-01T01:27:02.296Z,32.50
2023-05-01T01:28:02.339Z,32.51
2023-05-01T01:29:02.373Z,32.49
2023-05-01T01:30:02.404Z,32.51
2023-05-01T01:31:02.439Z,32.48
2023-05-01T01:32:02.446Z,32.51
2023-05-01T01:33:02.522Z,32.47
2023-05-01T01:34:02.545Z,32.48
2023-05-01T01:35:02.565Z,32.50
2023-05-01T01:36:02.599Z,32.46
2023-05-01T01:37:02.640Z,32.52
2023-05-01T01:38:02.641Z,32.52
2023-05-01T01:39:02.679Z,32.52
2023-05-01T01:40:02.766Z,32.50
2023-05-01T01:41:02.807Z,32.50
2023-05-01T01:42:02.885Z,32.51
2023-05-01T01:43:02.960Z,32.51
2023-05-01T01:44:03.044Z,32.52
2023-05-01T01:45:03.121Z,32.53
2023-05-01T01:46:03.238Z,32.55
2023-05-01T01:47:03.281Z,32.54
2023-05-01T01:48:03.600Z,32.53
2023-05-01T01:49:03.436Z,32.52
2023-05-01T01:50:03.517Z,32.51
2023-05-01T01:51:03.603Z,32.50
2023-05-01T01:52:03.682Z,32.47
2023-05-01T01:53:03.752Z,32.47
2023-05-01T01:54:03.815Z,32.48
2023-05-01T01:55:03.887Z,32.49
2023-05-01T01:56:04.061Z,32.46
2023-05-01T01:57:04.056Z,32.48
2023-05-01T01:58:04.138Z,32.50
2023-05-01T01:59:04.231Z,32.44
2023-05-01T02:00:04.285Z,32.44
2023-05-01T02:01:04.379Z,32.42
2023-05-01T02:02:04.515Z,32.47
2023-05-01T02:03:04.671Z,32.49
2023-05-01T02:04:04.660Z,32.48
2023-05-01T02:05:04.695Z,32.50
2023-05-01T02:06:04.821Z,32.48
2023-05-01T02:07:04.838Z,32.50
2023-05-01T02:08:04.909Z,32.50
2023-05-01T02:09:05.000Z,32.50
2023-05-01T02:10:05.122Z,32.46
2023-05-01T02:11:05.176Z,32.45
2023-05-01T02:12:05.245Z,32.45
2023-05-01T02:13:05.329Z,32.45
2023-05-01T02:14:05.400Z,32.48
2023-05-01T02:15:05.434Z,32.50
2023-05-01T02:16:05.507Z,32.48
2023-05-01T02:17:05.563Z,32.49
2023-05-01T02:18:05.582Z,32.47
2023-05-01T02:19:05.548Z,32.47
2023-05-01T02:20:05.576Z,32.47
2023-05-01T02:21:05.619Z,32.42
2023-05-01T02:22:05.635Z,32.45
2023-05-01T02:23:05.682Z,32.49
2023-05-01T02:24:05.695Z,32.51
2023-05-01T02:25:05.723Z,32.51
2023-05-01T02:26:05.767Z,32.52
2023-05-01T02:27:05.858Z,32.50
2023-05-01T02:28:05.865Z,32.51
2023-05-01T02:29:05.910Z,32.51
2023-05-01T02:30:05.982Z,32.52
2023-05-01T02:31:06.005Z,32.52
2023-05-01T02:32:06.009Z,32.52
2023-05-01T02:33:06.080Z,32.52
2023-05-01T02:34:06.033Z,32.49
2023-05-01T02:35:06.069Z,32.48
2023-05-01T02:36:06.144Z,32.43
2023-05-01T02:37:06.124Z,32.45
2023-05-01T02:38:06.157Z,32.44
2023-05-01T02:39:06.195Z,32.47
2023-05-01T02:40:06.268Z,32.50
2023-05-01T02:41:06.337Z,32.48
2023-05-01T02:42:06.443Z,32.46
2023-05-01T02:43:06.493Z,32.48
2023-05-01T02:44:06.580Z,32.50
2023-05-01T02:45:06.648Z,32.51
2023-05-01T02:46:06.760Z,32.50
2023-05-01T02:47:06.825Z,32.52
2023-05-01T02:48:06.961Z,32.48
2023-05-01T02:49:06.956Z,32.50
2023-05-01T02:50:07.035Z,32.50
2023-05-01T02:51:07.114Z,32.52
2023-05-01T02:52:07.216Z,32.52
2023-05-01T02:53:07.260Z,32.53
2023-05-01T02:54:07.345Z,32.52
2023-05-01T02:55:07.436Z,32.52
2023-05-01T02:56:07.494Z,32.52
2023-05-01T02:57:07.571Z,32.50
2023-05-01T02:58:07.651Z,32.50
2023-05-01T02:59:07.737Z,32.49
2023-05-01T03:00:07.805Z,32.49
2023-05-01T03:01:07.940Z,32.49
2023-05-01T03:02:07.961Z,32.49
2023-05-01T03:03:08.046Z,32.48
2023-05-01T03:04:08.139Z,32.47
2023-05-01T03:05:08.052Z,32.46
2023-05-01T03:06:08.112Z,32.44
2023-05-01T03:07:08.167Z,32.41
2023-05-01T03:08:08.142Z,32.42
2023-05-01T03:09:08.181Z,32.47
2023-05-01T03:10:08.211Z,32.47
2023-05-01T03:11:08.254Z,32.51
2023-05-01T03:12:08.272Z,32.50
2023-05-01T03:13:08.304Z,32.51
2023-05-01T03:14:08.331Z,32.51
2023-05-01T03:15:08.401Z,32.50
2023-05-01T03:16:08.467Z,32.48
2023-05-01T03:17:08.495Z,32.47
2023-05-01T03:18:08.607Z,32.49
2023-05-01T03:19:08.659Z,32.51
2023-05-01T03:20:08.748Z,32.48
2023-05-01T03:21:08.910Z,32.50
2023-05-01T03:22:08.900Z,32.50
2023-05-01T03:23:08.990Z,32.53
2023-05-01T03:24:09.068Z,32.49
2023-05-01T03:25:09.152Z,32.53
2023-05-01T03:26:09.234Z,32.54
2023-05-01T03:27:09.339Z,32.52
2023-05-01T03:28:09.398Z,32.50
2023-05-01T03:29:09.489Z,32.52
2023-05-01T03:30:09.586Z,32.54
2023-05-01T03:31:09.663Z,32.56
2023-05-01T03:32:09.807Z,32.55
2023-05-01T03:33:09.849Z,32.57
2023-05-01T03:34:09.902Z,32.54
2023-05-01T03:35:10.075Z,32.60
2023-05-01T03:36:10.079Z,32.58
2023-05-01T03:37:10.183Z,32.54
2023-05-01T03:38:10.267Z,32.57
2023-05-01T03:39:10.342Z,32.57
2023-05-01T03:40:10.430Z,32.57
2023-05-01T03:41:10.514Z,32.57
2023-05-01T03:42:10.586Z,32.60
2023-05-01T03:43:10.687Z,32.57
2023-05-01T03:44:10.770Z,32.55
2023-05-01T03:45:10.850Z,32.56
2023-05-01T03:46:10.981Z,32.55
2023-05-01T03:47:11.105Z,32.53
2023-05-01T03:48:11.268Z,32.55
2023-05-01T03:49:11.204Z,32.56
2023-05-01T03:50:11.281Z,32.58
2023-05-01T03:51:11.582Z,32.57
2023-05-01T03:52:11.479Z,32.50
2023-05-01T03:53:11.564Z,32.51
2023-05-01T03:54:11.645Z,32.53
2023-05-01T03:55:11.760Z,32.52
2023-05-01T03:56:11.819Z,32.52
2023-05-01T03:57:11.900Z,32.53
2023-05-01T03:58:11.971Z,32.55
2023-05-01T03:59:12.057Z,32.57
2023-05-01T04:00:12.137Z,32.61
2023-05-01T04:01:12.235Z,32.59
2023-05-01T04:02:12.347Z,32.60
2023-05-01T04:03:12.470Z,32.59
2023-05-01T04:04:12.629Z,32.62
2023-05-01T04:05:12.582Z,32.62
2023-05-01T04:06:12.690Z,32.60
2023-05-01T04:07:12.752Z,32.57
2023-05-01T04:08:12.826Z,32.58
2023-05-01T04:09:12.908Z,32.57
2023-05-01T04:10:12.979Z,32.61
2023-05-01T04:11:13.067Z,32.60
2023-05-01T04:12:13.149Z,32.60
2023-05-01T04:13:13.265Z,32.61
2023-05-01T04:14:13.362Z,32.61
2023-05-01T04:15:15.424Z,32.61
2023-05-01T04:16:13.519Z,32.60
2023-05-01T04:17:13.569Z,32.60
2023-05-01T04:18:13.828Z,32.61
2023-05-01T04:19:13.709Z,32.65
2023-05-01T04:20:13.695Z,32.62
2023-05-01T04:21:13.731Z,32.61
2023-05-01T04:22:13.772Z,32.62
2023-05-01T04:23:13.788Z,32.61
2023-05-01T04:24:13.824Z,32.59
2023-05-01T04:25:13.844Z,32.58
2023-05-01T04:26:13.885Z,32.57
2023-05-01T04:27:13.897Z,32.58
2023-05-01T04:28:13.924Z,32.60
2023-05-01T04:29:13.966Z,32.60
2023-05-01T04:30:14.055Z,32.60
2023-05-01T04:31:14.164Z,32.57
2023-05-01T04:32:14.227Z,32.59
2023-05-01T04:33:14.310Z,32.58
2023-05-01T04:34:14.385Z,32.57
2023-05-01T04:35:14.473Z,32.57
2023-05-01T04:36:14.552Z,32.56
2023-05-01T04:37:14.641Z,32.55
2023-05-01T04:38:14.719Z,32.53
2023-05-01T04:39:14.806Z,32.57
2023-05-01T04:40:14.884Z,32.54
2023-05-01T04:41:14.960Z,32.54
2023-05-01T04:42:15.030Z,32.53
2023-05-01T04:43:15.133Z,32.52
2023-05-01T04:44:15.209Z,32.52
2023-05-01T04:45:15.305Z,32.51
2023-05-01T04:46:15.410Z,32.51
2023-05-01T04:47:15.450Z,32.52
2023-05-01T04:48:15.599Z,32.52
2023-05-01T04:49:15.597Z,32.54
2023-05-01T04:50:15.695Z,32.55
2023-05-01T04:51:15.764Z,32.51
2023-05-01T04:52:15.838Z,32.52
2023-05-01T04:53:15.959Z,32.53
2023-05-01T04:54:16.031Z,32.57
2023-05-01T04:55:16.080Z,32.50
2023-05-01T04:56:16.181Z,32.50
2023-05-01T04:57:16.256Z,32.49
2023-05-01T04:58:16.364Z,32.51
2023-05-01T04:59:16.423Z,32.49
2023-05-01T05:00:16.498Z,32.51
2023-05-01T05:01:16.636Z,32.51
2023-05-01T05:02:16.689Z,32.51
2023-05-01T05:03:16.794Z,32.52
2023-05-01T05:04:16.836Z,32.50
2023-05-01T05:05:16.913Z,32.55
2023-05-01T05:06:17.080Z,32.55
2023-05-01T05:07:17.081Z,32.53
2023-05-01T05:08:17.145Z,32.53
2023-05-01T05:09:19.435Z,32.52
2023-05-01T05:10:17.251Z,32.51
2023-05-01T05:11:17.280Z,32.52
2023-05-01T05:12:17.347Z,32.49
2023-05-01T05:13:17.375Z,32.51
2023-05-01T05:14:17.381Z,32.52
2023-05-01T05:15:17.401Z,32.53
2023-05-01T05:16:17.486Z,32.50
2023-05-01T05:17:17.478Z,32.53
2023-05-01T05:18:17.556Z,32.54
2023-05-01T05:19:17.551Z,32.52
2023-05-01T05:20:17.579Z,32.52
2023-05-01T05:21:17.624Z,32.53
2023-05-01T05:22:17.666Z,32.53
2023-05-01T05:23:17.697Z,32.50
2023-05-01T05:24:17.736Z,32.50
2023-05-01T05:25:17.743Z,32.51
2023-05-01T05:26:17.779Z,32.49
2023-05-01T05:27:17.818Z,32.45
2023-05-01T05:28:17.851Z,32.44
2023-05-01T05:29:17.895Z,32.41
2023-05-01T05:30:17.943Z,32.44
2023-05-01T05:31:17.964Z,32.42
2023-05-01T05:32:18.086Z,32.45
2023-05-01T05:33:18.072Z,32.45
2023-05-01T05:34:18.069Z,32.45
2023-05-01T05:35:18.116Z,32.47
2023-05-01T05:36:18.169Z,32.41
2023-05-01T05:37:18.239Z,32.43
2023-05-01T05:38:18.309Z,32.46
2023-05-01T05:39:18.387Z,32.49
2023-05-01T05:40:18.479Z,32.50
2023-05-01T05:41:18.550Z,32.51
2023-05-01T05:42:18.649Z,32.50
2023-05-01T05:43:18.721Z,32.52
2023-05-01T05:44:18.791Z,32.52
2023-05-01T05:45:18.914Z,32.50
2023-05-01T05:46:19.022Z,32.50
2023-05-01T05:47:19.055Z,32.50
2023-05-01T05:48:19.172Z,32.50
2023-05-01T05:49:19.208Z,32.53
2023-05-01T05:50:19.295Z,32.51
2023-05-01T05:51:19.462Z,32.54
2023-05-01T05:52:19.410Z,32.56
2023-05-01T05:53:19.441Z,32.52
2023-05-01T05:54:19.489Z,32.55
2023-05-01T05:55:19.531Z,32.54
2023-05-01T05:56:19.536Z,32.55
2023-05-01T05:57:19.556Z,32.56
2023-05-01T05:58:19.626Z,32.53
2023-05-01T05:59:19.610Z,32.55
2023-05-01T06:00:19.667Z,32.53
2023-05-01T06:01:19.694Z,32.50
2023-05-01T06:02:19.966Z,32.54
2023-05-01T06:03:19.851Z,32.53
2023-05-01T06:04:19.788Z,32.51
2023-05-01T06:05:19.866Z,32.50
2023-05-01T06:06:19.954Z,32.51
2023-05-01T06:07:19.915Z,32.49
2023-05-01T06:08:19.989Z,32.48
2023-05-01T06:09:20.040Z,32.53
2023-05-01T06:10:20.866Z,32.50
2023-05-01T06:11:20.223Z,32.50
2023-05-01T06:12:20.296Z,32.49
2023-05-01T06:13:20.365Z,32.46
2023-05-01T06:14:20.505Z,32.45
2023-05-01T06:15:20.571Z,32.45
2023-05-01T06:16:20.823Z,32.45
2023-05-01T06:17:20.701Z,32.45
2023-05-01T06:18:20.772Z,32.43
2023-05-01T06:19:20.849Z,32.44
2023-05-01T06:20:20.922Z,32.42
2023-05-01T06:21:20.977Z,32.42
2023-05-01T06:22:21.051Z,32.44
2023-05-01T06:23:21.143Z,32.44
2023-05-01T06:24:21.192Z,32.43
2023-05-01T06:25:21.268Z,32.41
2023-05-01T06:26:21.387Z,32.43
2023-05-01T06:27:21.432Z,32.44
2023-05-01T06:28:21.544Z,32.43
2023-05-01T06:29:21.513Z,32.41
2023-05-01T06:30:21.550Z,32.40
2023-05-01T06:31:21.591Z,32.38
2023-05-01T06:32:21.604Z,32.39
2023-05-01T06:33:21.643Z,32.35
2023-05-01T06:34:21.692Z,32.36
2023-05-01T06:35:21.698Z,32.35
2023-05-01T06:36:21.713Z,32.33
2023-05-01T06:37:21.784Z,32.34
2023-05-01T06:38:21.780Z,32.32
2023-05-01T06:39:21.880Z,32.31
2023-05-01T06:40:21.843Z,32.30
2023-05-01T06:41:21.862Z,32.29
2023-05-01T06:42:21.925Z,32.27
2023-05-01T06:43:21.941Z,32.27
2023-05-01T06:44:22.042Z,32.28
2023-05-01T06:45:22.099Z,32.26
2023-05-01T06:46:22.179Z,32.28
2023-05-01T06:47:22.262Z,32.31
2023-05-01T06:48:22.282Z,32.30
2023-05-01T06:49:22.352Z,32.29
2023-05-01T06:50:22.428Z,32.28
2023-05-01T06:51:22.483Z,32.27
2023-05-01T06:52:22.578Z,32.24
2023-05-01T06:53:22.653Z,32.23
2023-05-01T06:54:22.717Z,32.19
2023-05-01T06:55:22.763Z,32.22
2023-05-01T06:56:22.819Z,32.18
2023-05-01T06:57:22.888Z,32.21
2023-05-01T06:58:24.306Z,32.22
2023-05-01T06:59:23.013Z,32.22
2023-05-01T07:00:23.098Z,32.20
2023-05-01T07:01:23.193Z,32.19
2023-05-01T07:02:23.257Z,32.17
2023-05-01T07:03:23.388Z,32.18
2023-05-01T07:04:23.372Z,32.15
2023-05-01T07:05:23.369Z,32.13
2023-05-01T07:06:23.475Z,32.10
2023-05-01T07:07:23.544Z,32.11
2023-05-01T07:08:23.553Z,32.11
2023-05-01T07:09:23.644Z,32.11
2023-05-01T07:10:23.697Z,32.10
2023-05-01T07:11:24.385Z,32.11
2023-05-01T07:12:23.840Z,32.16
2023-05-01T07:13:23.846Z,32.14
2023-05-01T07:14:23.930Z,32.16
2023-05-01T07:15:23.941Z,32.15
2023-05-01T07:16:24.070Z,32.17
2023-05-01T07:17:24.123Z,32.21
2023-05-01T07:18:24.138Z,32.18
2023-05-01T07:19:24.191Z,32.17
2023-05-01T07:20:24.236Z,32.15
2023-05-01T07:21:24.311Z,32.17
2023-05-01T07:22:24.356Z,32.15
2023-05-01T07:23:24.458Z,32.14
2023-05-01T07:24:24.468Z,32.16
2023-05-01T07:25:24.581Z,32.15
2023-05-01T07:26:24.602Z,32.15
2023-05-01T07:27:24.647Z,32.17
2023-05-01T07:28:24.707Z,32.19
2023-05-01T07:29:24.783Z,32.17
2023-05-01T07:30:24.844Z,32.16
2023-05-01T07:31:24.929Z,32.15
2023-05-01T07:32:24.956Z,32.12
2023-05-01T07:33:25.073Z,32.13
2023-05-01T07:34:25.077Z,32.11
2023-05-01T07:35:25.150Z,32.15
2023-05-01T07:36:25.203Z,32.12
2023-05-01T07:37:25.273Z,32.13
2023-05-01T07:38:25.308Z,32.09
2023-05-01T07:39:25.350Z,32.10
2023-05-01T07:40:25.489Z,32.07
2023-05-01T07:41:25.450Z,32.07
2023-05-01T07:42:25.531Z,32.08
2023-05-01T07:43:25.697Z,32.09
2023-05-01T07:44:25.658Z,32.11
2023-05-01T07:45:25.763Z,32.09
2023-05-01T07:46:25.816Z,32.10
2023-05-01T07:47:25.798Z,32.08
2023-05-01T07:48:25.870Z,32.07
2023-05-01T07:49:25.919Z,32.12
2023-05-01T07:50:26.088Z,32.07
2023-05-01T07:51:26.051Z,32.08
2023-05-01T07:52:26.094Z,32.03
2023-05-01T07:53:26.154Z,32.03
2023-05-01T07:54:26.207Z,32.07
2023-05-01T07:55:26.260Z,32.08
2023-05-01T07:56:26.863Z,32.08
2023-05-01T07:57:26.386Z,32.10
2023-05-01T07:58:26.475Z,32.02
2023-05-01T07:59:26.542Z,32.05
2023-05-01T08:00:26.589Z,32.08
2023-05-01T08:01:26.644Z,32.05
2023-05-01T08:02:26.826Z,32.07
2023-05-01T08:03:27.062Z,32.10
2023-05-01T08:04:26.903Z,32.06
2023-05-01T08:05:26.918Z,32.05
2023-05-01T08:06:26.994Z,32.01
2023-05-01T08:07:27.086Z,32.00
2023-05-01T08:08:27.059Z,31.97
2023-05-01T08:09:27.145Z,31.98
2023-05-01T08:10:27.210Z,31.96
2023-05-01T08:11:27.242Z,31.94
2023-05-01T08:12:27.293Z,31.96
2023-05-01T08:13:27.372Z,31.92
2023-05-01T08:14:27.399Z,31.93
2023-05-01T08:15:27.463Z,31.93
2023-05-01T08:16:27.546Z,31.90
2023-05-01T08:17:27.640Z,31.86
2023-05-01T08:18:27.643Z,31.92
2023-05-01T08:19:27.714Z,31.88
2023-05-01T08:20:27.748Z,31.80
2023-05-01T08:21:27.798Z,31.81
2023-05-01T08:22:27.896Z,31.79
2023-05-01T08:23:27.929Z,31.80
2023-05-01T08:24:27.988Z,31.73
2023-05-01T08:25:28.051Z,31.68
2023-05-01T08:26:28.104Z,31.70
2023-05-01T08:27:28.161Z,31.70
2023-05-01T08:28:28.230Z,31.65
2023-05-01T08:29:28.257Z,31.71
2023-05-01T08:30:28.312Z,31.72
2023-05-01T08:31:28.938Z,31.77
2023-05-01T08:32:28.499Z,31.69
2023-05-01T08:33:28.589Z,31.72
2023-05-01T08:34:28.548Z,31.66
2023-05-01T08:35:28.654Z,31.65
2023-05-01T08:36:28.623Z,31.69
2023-05-01T08:37:28.690Z,31.68
2023-05-01T08:38:28.732Z,31.67
2023-05-01T08:39:28.800Z,31.64
2023-05-01T08:40:28.844Z,31.62
2023-05-01T08:41:29.438Z,31.65
2023-05-01T08:42:29.865Z,31.59
2023-05-01T08:43:28.976Z,31.60
2023-05-01T08:44:28.982Z,31.60
2023-05-01T08:45:29.017Z,31.61
2023-05-01T08:46:29.118Z,31.60
2023-05-01T08:47:29.146Z,31.58
2023-05-01T08:48:29.113Z,31.64
2023-05-01T08:49:29.137Z,31.57
2023-05-01T08:50:29.170Z,31.52
2023-05-01T08:51:29.199Z,31.57
2023-05-01T08:52:29.198Z,31.61
2023-05-01T08:53:29.230Z,31.56
2023-05-01T08:54:29.261Z,31.60
2023-05-01T08:55:29.295Z,31.60
2023-05-01T08:56:29.315Z,31.51
2023-05-01T08:57:29.340Z,31.55
2023-05-01T08:58:29.347Z,31.50
2023-05-01T08:59:29.370Z,31.51
2023-05-01T09:00:29.389Z,31.49
2023-05-01T09:01:29.453Z,31.44
2023-05-01T09:02:29.525Z,31.47
2023-05-01T09:03:29.563Z,31.41
2023-05-01T09:04:29.490Z,31.40
2023-05-01T09:05:29.589Z,31.38
2023-05-01T09:06:29.609Z,31.39
2023-05-01T09:07:29.594Z,31.44
2023-05-01T09:08:29.568Z,31.41
2023-05-01T09:09:29.632Z,31.45
2023-05-01T09:10:30.710Z,31.48
2023-05-01T09:11:29.669Z,31.50
2023-05-01T09:12:29.730Z,31.49
2023-05-01T09:13:29.749Z,31.54
2023-05-01T09:14:29.740Z,31.51
2023-05-01T09:15:29.843Z,31.52
2023-05-01T09:16:29.922Z,31.55
2023-05-01T09:17:29.878Z,31.56
2023-05-01T09:18:29.846Z,31.57
2023-05-01T09:19:30.026Z,31.57
2023-05-01T09:20:29.913Z,31.53
2023-05-01T09:21:29.919Z,31.55
2023-05-01T09:22:29.956Z,31.58
2023-05-01T09:23:30.037Z,31.53
2023-05-01T09:24:30.021Z,31.48
2023-05-01T09:25:30.229Z,31.48
2023-05-01T09:26:30.083Z,31.49
2023-05-01T09:27:30.213Z,31.45
2023-05-01T09:28:30.067Z,31.48
2023-05-01T09:29:30.145Z,31.48
2023-05-01T09:30:30.174Z,31.46
2023-05-01T09:31:30.334Z,31.50
2023-05-01T09:32:30.552Z,31.49
2023-05-01T09:33:30.205Z,31.51
2023-05-01T09:34:30.214Z,31.47
2023-05-01T09:35:30.266Z,31.48
2023-05-01T09:36:30.964Z,31.42
2023-05-01T09:37:30.304Z,31.40
2023-05-01T09:38:30.322Z,31.39
2023-05-01T09:39:30.339Z,31.41
2023-05-01T09:40:30.367Z,31.43
2023-05-01T09:41:30.380Z,31.41
2023-05-01T09:42:30.415Z,31.43
2023-05-01T09:43:30.452Z,31.39
2023-05-01T09:44:30.478Z,31.41
2023-05-01T09:45:30.478Z,31.44
2023-05-01T09:46:30.605Z,31.45
2023-05-01T09:47:31.457Z,31.45
2023-05-01T09:48:31.996Z,31.44
2023-05-01T09:49:30.620Z,31.43
2023-05-01T09:50:30.596Z,31.42
2023-05-01T09:51:30.661Z,31.44
2023-05-01T09:52:30.657Z,31.41
2023-05-01T09:53:30.670Z,31.43
2023-05-01T09:54:30.708Z,31.43
2023-05-01T09:55:30.755Z,31.44
2023-05-01T09:56:30.757Z,31.47
2023-05-01T09:57:30.811Z,31.49
2023-05-01T09:58:30.851Z,31.44
2023-05-01T09:59:30.850Z,31.46
2023-05-01T10:00:30.877Z,31.43
2023-05-01T10:01:30.904Z,31.39
2023-05-01T10:02:31.125Z,31.41
2023-05-01T10:03:31.025Z,31.47
2023-05-01T10:04:30.975Z,31.45
2023-05-01T10:05:31.002Z,31.44
2023-05-01T10:06:31.067Z,31.41
2023-05-01T10:07:31.115Z,31.42
2023-05-01T10:08:31.092Z,31.43
2023-05-01T10:09:31.136Z,31.45
2023-05-01T10:10:31.138Z,31.46
2023-05-01T10:11:31.181Z,31.43
2023-05-01T10:12:31.243Z,31.41
2023-05-01T10:13:31.274Z,31.45
2023-05-01T10:14:31.261Z,31.42
2023-05-01T10:15:31.275Z,31.43
2023-05-01T10:16:31.379Z,31.37
2023-05-01T10:17:31.427Z,31.37
2023-05-01T10:18:31.348Z,31.36
2023-05-01T10:19:31.386Z,31.35
2023-05-01T10:20:31.423Z,31.34
2023-05-01T10:21:31.503Z,31.37
2023-05-01T10:22:31.500Z,31.34
2023-05-01T10:23:31.530Z,31.30
2023-05-01T10:24:31.536Z,31.33
2023-05-01T10:25:31.566Z,31.30
2023-05-01T10:26:31.631Z,31.28
2023-05-01T10:27:31.685Z,31.29
2023-05-01T10:28:31.665Z,31.27
2023-05-01T10:29:31.687Z,31.25
2023-05-01T10:30:32.425Z,31.20
2023-05-01T10:31:31.786Z,31.27
2023-05-01T10:32:31.799Z,31.29
2023-05-01T10:33:31.795Z,31.30
2023-05-01T10:34:31.784Z,31.31
2023-05-01T10:35:31.817Z,31.30
2023-05-01T10:36:31.856Z,31.29
2023-05-01T10:37:31.924Z,31.33
2023-05-01T10:38:31.925Z,31.34
2023-05-01T10:39:31.963Z,31.32
2023-05-01T10:40:31.976Z,31.32
2023-05-01T10:41:31.999Z,31.32
2023-05-01T10:42:32.069Z,31.32
2023-05-01T10:43:32.068Z,31.35
2023-05-01T10:44:32.125Z,31.33
2023-05-01T10:45:33.261Z,31.38
2023-05-01T10:46:32.229Z,31.41
2023-05-01T10:47:32.244Z,31.41
2023-05-01T10:48:32.217Z,31.41
2023-05-01T10:49:32.218Z,31.45
2023-05-01T10:50:32.254Z,31.43
2023-05-01T10:51:32.311Z,31.43
2023-05-01T10:52:32.322Z,31.42
2023-05-01T10:53:32.327Z,31.42
2023-05-01T10:54:32.353Z,31.43
2023-05-01T10:55:32.423Z,31.45
2023-05-01T10:56:32.472Z,31.46
2023-05-01T10:57:33.476Z,31.48
2023-05-01T10:58:32.474Z,31.45
2023-05-01T10:59:32.493Z,31.49
2023-05-01T11:00:32.537Z,31.49
2023-05-01T11:01:32.653Z,31.52
2023-05-01T11:02:32.590Z,31.53
2023-05-01T11:03:32.609Z,31.51
2023-05-01T11:04:32.637Z,31.51
2023-05-01T11:06:32.952Z,31.52
2023-05-01T11:07:32.745Z,31.49
2023-05-01T11:08:32.773Z,31.51
2023-05-01T11:09:32.787Z,31.48
2023-05-01T11:10:32.827Z,31.47
2023-05-01T11:11:32.832Z,31.46
2023-05-01T11:12:32.900Z,31.47
2023-05-01T11:13:32.905Z,31.44
2023-05-01T11:14:32.933Z,31.42
2023-05-01T11:15:32.938Z,31.47
2023-05-01T11:16:33.034Z,31.46
2023-05-01T11:17:33.073Z,31.44
2023-05-01T11:18:33.037Z,31.42
2023-05-01T11:19:33.075Z,31.41
2023-05-01T11:20:33.182Z,31.37
2023-05-01T11:21:33.122Z,31.35
2023-05-01T11:22:33.157Z,31.36
2023-05-01T11:23:33.193Z,31.40
2023-05-01T11:24:33.219Z,31.38
2023-05-01T11:25:33.346Z,31.36
2023-05-01T11:26:33.307Z,31.37
2023-05-01T11:27:33.302Z,31.31
2023-05-01T11:28:33.337Z,31.30
2023-05-01T11:29:33.372Z,31.31
2023-05-01T11:30:33.416Z,31.31
2023-05-01T11:31:33.442Z,31.30
2023-05-01T11:32:33.493Z,31.31
2023-05-01T11:33:33.482Z,31.33
2023-05-01T11:34:33.478Z,31.30
2023-05-01T11:35:33.515Z,31.34
2023-05-01T11:36:33.523Z,31.33
2023-05-01T11:37:34.474Z,31.38
2023-05-01T11:38:34.036Z,31.36
2023-05-01T11:39:33.554Z,31.38
2023-05-01T11:40:33.580Z,31.36
2023-05-01T11:41:33.593Z,31.39
2023-05-01T11:42:33.654Z,31.38
2023-05-01T11:43:33.671Z,31.39
2023-05-01T11:44:33.706Z,31.38
2023-05-01T11:45:33.744Z,31.40
2023-05-01T11:46:33.812Z,31.41
2023-05-01T11:47:33.793Z,31.40
2023-05-01T11:48:33.799Z,31.41
2023-05-01T11:49:33.824Z,31.38
2023-05-01T11:50:33.891Z,31.35
2023-05-01T11:51:33.921Z,31.37
2023-05-01T11:52:33.891Z,31.34
2023-05-01T11:53:33.923Z,31.31
2023-05-01T11:54:33.956Z,31.31
2023-05-01T11:55:34.001Z,31.30
2023-05-01T11:56:34.024Z,31.31
2023-05-01T11:57:34.028Z,31.29
2023-05-01T11:58:34.053Z,31.27
2023-05-01T11:59:34.107Z,31.26
2023-05-01T12:00:34.125Z,31.26
2023-05-01T12:01:34.109Z,31.22
2023-05-01T12:02:34.163Z,31.26
2023-05-01T12:03:34.213Z,31.21
2023-05-01T12:04:34.237Z,31.22
2023-05-01T12:05:34.182Z,31.19
2023-05-01T12:06:34.202Z,31.24
2023-05-01T12:07:34.255Z,31.21
2023-05-01T12:08:34.214Z,31.19
2023-05-01T12:09:34.234Z,31.21
2023-05-01T12:10:35.530Z,31.19
2023-05-01T12:11:34.264Z,31.23
2023-05-01T12:12:34.277Z,31.23
2023-05-01T12:13:34.326Z,31.19
2023-05-01T12:14:34.299Z,31.17
2023-05-01T12:15:34.306Z,31.18
2023-05-01T12:16:34.378Z,31.18
2023-05-01T12:17:34.347Z,31.14
2023-05-01T12:18:34.372Z,31.06
2023-05-01T12:19:34.377Z,31.11
2023-05-01T12:20:34.413Z,31.17
2023-05-01T12:21:34.432Z,31.15
2023-05-01T12:22:34.424Z,31.20
2023-05-01T12:23:34.452Z,31.15
2023-05-01T12:24:34.458Z,31.18
2023-05-01T12:25:34.476Z,31.18
2023-05-01T12:26:34.485Z,31.14
2023-05-01T12:27:34.526Z,31.10
2023-05-01T12:28:34.591Z,31.11
2023-05-01T12:29:34.704Z,31.09
2023-05-01T12:30:35.492Z,31.08
2023-05-01T12:31:34.794Z,31.07
2023-05-01T12:32:34.828Z,31.08
2023-05-01T12:33:34.762Z,31.12
2023-05-01T12:34:34.881Z,31.07
2023-05-01T12:35:34.846Z,31.08
2023-05-01T12:36:34.948Z,31.05
2023-05-01T12:37:34.868Z,31.10
2023-05-01T12:38:34.976Z,31.03
2023-05-01T12:39:34.805Z,31.07
2023-05-01T12:40:34.816Z,31.11
2023-05-01T12:41:34.824Z,31.12
2023-05-01T12:42:34.877Z,31.06
2023-05-01T12:43:34.872Z,31.04
2023-05-01T12:44:34.902Z,31.06
2023-05-01T12:45:34.902Z,31.08
2023-05-01T12:46:34.976Z,31.09
2023-05-01T12:47:34.978Z,31.05
2023-05-01T12:48:35.016Z,31.04
2023-05-01T12:49:35.000Z,31.06
2023-05-01T12:50:34.998Z,31.04
2023-05-01T12:51:35.039Z,31.02
2023-05-01T12:52:35.004Z,30.98
2023-05-01T12:53:35.047Z,31.00
2023-05-01T12:54:35.052Z,31.01